Jasper, Tennessee
Current Conditions -  °F | °C
As of 6:53 PM on Sunday 23 Nov 2014 (Local Time) from KCHA Reporting Station
Overcast Overcast  
Wind Chill: 58°   Ceiling: 2700
Heat Index: 58°   Visibility: 8mi
Dew Point: 55°   Wind: 8mph
Humidity: 90%   Direction: 170°S
Pressure: 29.59"   Gusts: NA
Location:  35.07°N, 85.63°W
Report Text: KCHA 240053Z 17007KT 8SM SCT017 BKN027 OVC034 14/13 A2959 RMK AO2 SLP019 T01440128
Loading
Personal Weather Stations






























Interactive Weather Map New forecast layout! Learn more

10-Day Weather Forecast

Advertisements
Track Severe Weather on mobile